Time;durP1;ratioP1;P1;durP2;ratioP2;P2;SDS_P1;SDS_P2;PMS_P1;PMS_P2;Temp;Humidity;BMP_temperature;BMP_pressure;BME280_temperature;BME280_humidity;BME280_pressure;Samples;Min_cycle;Max_cycle;Signal;HPM_P1;HPM_P2
2023/05/24 00:00:24;;;;;;;1.38;0.82;;;;;;;;;;5046564;28;20040;-79
2023/05/24 00:02:50;;;;;;;0.95;0.55;;;;;;;;;;5036949;28;20047;-79
2023/05/24 00:05:17;;;;;;;1.42;0.80;;;;;;;;;;5034051;28;20045;-79
2023/05/24 00:07:43;;;;;;;0.80;0.80;;;;;;;;;;5042608;28;20143;-79
2023/05/24 00:10:09;;;;;;;1.63;0.55;;;;;;;;;;5033046;28;20365;-79
2023/05/24 00:12:35;;;;;;;0.75;0.45;;;;;;;;;;5032280;28;20031;-80
2023/05/24 00:15:01;;;;;;;3.70;0.80;;;;;;;;;;5045004;28;20383;-79
2023/05/24 00:17:29;;;;;;;1.25;0.80;;;;;;;;;;5041526;28;20029;-80
2023/05/24 00:19:55;;;;;;;0.98;0.50;;;;;;;;;;5039936;28;20388;-80
2023/05/24 00:22:21;;;;;;;3.72;1.00;;;;;;;;;;5044396;28;20124;-80
2023/05/24 00:24:47;;;;;;;1.90;0.60;;;;;;;;;;5038232;28;20035;-79
2023/05/24 00:27:13;;;;;;;1.17;0.88;;;;;;;;;;5035749;28;20108;-79
2023/05/24 00:29:39;;;;;;;4.13;0.60;;;;;;;;;;5043293;28;20087;-79
2023/05/24 00:32:05;;;;;;;0.63;0.60;;;;;;;;;;5043294;28;20021;-79
2023/05/24 00:34:31;;;;;;;1.25;0.65;;;;;;;;;;5041668;28;20064;-80
2023/05/24 00:36:57;;;;;;;2.67;0.60;;;;;;;;;;5035006;28;20045;-79
2023/05/24 00:39:23;;;;;;;1.13;1.02;;;;;;;;;;5038002;28;20056;-80
2023/05/24 00:41:49;;;;;;;1.33;1.10;;;;;;;;;;5047699;28;20675;-80
2023/05/24 00:44:15;;;;;;;1.23;0.98;;;;;;;;;;5033936;28;20040;-80
2023/05/24 00:46:41;;;;;;;0.95;0.80;;;;;;;;;;5034954;28;20609;-80
2023/05/24 00:49:08;;;;;;;0.75;0.70;;;;;;;;;;5036456;28;20048;-79
2023/05/24 00:51:35;;;;;;;0.50;0.50;;;;;;;;;;5040949;28;20124;-80
2023/05/24 00:54:01;;;;;;;1.95;0.88;;;;;;;;;;5038537;28;20060;-80
2023/05/24 00:56:27;;;;;;;0.50;0.40;;;;;;;;;;5039536;28;20052;-80
2023/05/24 00:58:54;;;;;;;3.33;0.57;;;;;;;;;;5043209;28;20648;-79
2023/05/24 01:01:24;;;;;;;0.52;0.50;;;;;;;;;;5034158;28;20074;-80
2023/05/24 01:03:50;;;;;;;1.05;0.65;;;;;;;;;;5034609;28;20053;-79
2023/05/24 01:06:16;;;;;;;2.15;0.90;;;;;;;;;;5029674;28;20400;-79
2023/05/24 01:08:58;;;;;;;0.50;0.50;;;;;;;;;;5027962;28;20034;-79
2023/05/24 01:11:43;;;;;;;2.92;0.40;;;;;;;;;;5032937;28;20108;-79
2023/05/24 01:14:15;;;;;;;3.03;0.77;;;;;;;;;;5035977;28;20141;-79
2023/05/24 01:16:48;;;;;;;1.40;0.52;;;;;;;;;;5039318;28;20721;-80
2023/05/24 01:19:31;;;;;;;1.13;0.55;;;;;;;;;;5030118;28;20029;-79
2023/05/24 01:22:08;;;;;;;0.45;0.38;;;;;;;;;;5036785;28;20020;-79
2023/05/24 01:24:53;;;;;;;0.95;0.50;;;;;;;;;;5036097;28;20115;-79
2023/05/24 01:27:20;;;;;;;0.85;0.70;;;;;;;;;;5038568;28;20041;-79
2023/05/24 01:29:52;;;;;;;6.15;0.60;;;;;;;;;;5037383;28;20112;-79
2023/05/24 01:32:18;;;;;;;0.30;0.30;;;;;;;;;;5036102;28;20108;-79
2023/05/24 01:34:44;;;;;;;3.95;0.73;;;;;;;;;;5039137;28;20036;-79
2023/05/24 01:37:10;;;;;;;0.77;0.57;;;;;;;;;;5029916;28;20017;-78
2023/05/24 01:39:36;;;;;;;2.10;0.60;;;;;;;;;;5044869;28;20030;-79
2023/05/24 01:42:21;;;;;;;0.93;0.60;;;;;;;;;;5039163;28;20117;-78
2023/05/24 01:45:05;;;;;;;0.80;0.50;;;;;;;;;;5034405;28;20060;-79
2023/05/24 01:47:42;;;;;;;0.73;0.40;;;;;;;;;;5037491;28;20459;-79
2023/05/24 01:50:16;;;;;;;0.30;0.30;;;;;;;;;;5038191;28;20025;-79
2023/05/24 01:52:44;;;;;;;0.80;0.60;;;;;;;;;;5038434;28;20040;-79
2023/05/24 01:55:12;;;;;;;1.50;0.45;;;;;;;;;;5040667;28;20021;-79
2023/05/24 01:57:40;;;;;;;0.55;0.40;;;;;;;;;;5047444;28;20446;-79
2023/05/24 02:00:06;;;;;;;0.60;0.40;;;;;;;;;;5046409;28;20025;-79
2023/05/24 02:02:32;;;;;;;1.77;0.50;;;;;;;;;;5038849;28;20149;-79
2023/05/24 02:04:58;;;;;;;0.90;0.43;;;;;;;;;;5037217;28;20034;-79
2023/05/24 02:07:25;;;;;;;0.52;0.50;;;;;;;;;;5040485;28;20090;-79
2023/05/24 02:09:51;;;;;;;1.73;0.68;;;;;;;;;;5042773;28;20041;-78
2023/05/24 02:12:17;;;;;;;1.17;0.88;;;;;;;;;;5046254;28;20021;-79
2023/05/24 02:14:43;;;;;;;1.25;0.75;;;;;;;;;;5038567;28;20040;-78
2023/05/24 02:17:09;;;;;;;1.23;0.60;;;;;;;;;;5043763;28;20017;-78
2023/05/24 02:19:36;;;;;;;0.40;0.40;;;;;;;;;;5031080;28;20099;-79
2023/05/24 02:22:02;;;;;;;0.52;0.47;;;;;;;;;;5033247;28;20033;-78
2023/05/24 02:24:28;;;;;;;1.05;0.80;;;;;;;;;;5048567;28;20036;-78
2023/05/24 02:26:54;;;;;;;0.63;0.63;;;;;;;;;;5039499;28;20036;-79
2023/05/24 02:29:21;;;;;;;1.77;0.65;;;;;;;;;;5032285;28;20057;-79
2023/05/24 02:31:50;;;;;;;0.57;0.40;;;;;;;;;;5035267;28;20035;-79
2023/05/24 02:34:16;;;;;;;0.52;0.40;;;;;;;;;;5043661;28;20029;-79
2023/05/24 02:36:44;;;;;;;2.92;0.50;;;;;;;;;;5041999;28;20052;-79
2023/05/24 02:39:10;;;;;;;1.23;0.50;;;;;;;;;;5047391;28;20096;-78
2023/05/24 02:41:36;;;;;;;0.80;0.47;;;;;;;;;;5038039;28;20384;-79
2023/05/24 02:44:02;;;;;;;2.35;0.50;;;;;;;;;;5034313;28;20033;-79
2023/05/24 02:46:28;;;;;;;0.77;0.70;;;;;;;;;;5036087;28;20037;-79
2023/05/24 02:48:54;;;;;;;0.50;0.50;;;;;;;;;;5032662;28;20036;-79
2023/05/24 02:51:20;;;;;;;0.68;0.68;;;;;;;;;;5036727;28;20352;-79
2023/05/24 02:53:46;;;;;;;0.80;0.63;;;;;;;;;;5036957;28;20481;-79
2023/05/24 02:56:12;;;;;;;0.57;0.57;;;;;;;;;;5042024;28;20161;-79
2023/05/24 02:58:39;;;;;;;3.75;0.50;;;;;;;;;;5037226;28;20488;-79
2023/05/24 03:01:06;;;;;;;1.58;0.60;;;;;;;;;;5040840;28;20037;-79
2023/05/24 03:03:32;;;;;;;0.57;0.55;;;;;;;;;;5032415;28;20049;-78
2023/05/24 03:05:58;;;;;;;1.73;0.40;;;;;;;;;;5032806;28;20072;-79
2023/05/24 03:08:24;;;;;;;0.63;0.40;;;;;;;;;;5039821;28;20484;-78
2023/05/24 03:10:50;;;;;;;2.00;0.52;;;;;;;;;;5036517;28;20498;-78
2023/05/24 03:13:16;;;;;;;3.97;0.80;;;;;;;;;;5033157;28;20074;-78
2023/05/24 03:15:42;;;;;;;0.55;0.55;;;;;;;;;;5034842;28;20033;-79
2023/05/24 03:18:08;;;;;;;0.63;0.47;;;;;;;;;;5042340;28;20029;-80
2023/05/24 03:20:34;;;;;;;0.43;0.35;;;;;;;;;;5039790;28;20084;-75
2023/05/24 03:23:00;;;;;;;2.25;0.50;;;;;;;;;;5033801;28;20033;-75
2023/05/24 03:25:26;;;;;;;0.57;0.50;;;;;;;;;;5046328;28;20026;-80
2023/05/24 03:27:52;;;;;;;1.17;0.60;;;;;;;;;;5048709;28;20078;-80
2023/05/24 03:30:18;;;;;;;1.00;0.50;;;;;;;;;;5040688;28;20037;-81
2023/05/24 03:32:44;;;;;;;0.60;0.40;;;;;;;;;;5040099;28;20037;-80
2023/05/24 03:35:10;;;;;;;2.05;1.02;;;;;;;;;;5040375;28;20021;-81
2023/05/24 03:37:37;;;;;;;1.08;0.70;;;;;;;;;;5034741;28;20033;-84
2023/05/24 03:40:03;;;;;;;0.40;0.40;;;;;;;;;;5040092;28;20021;-85
2023/05/24 03:42:29;;;;;;;0.82;0.63;;;;;;;;;;5056405;28;20024;-82
2023/05/24 03:44:55;;;;;;;0.95;0.60;;;;;;;;;;5061421;28;20040;-83
2023/05/24 03:47:21;;;;;;;0.60;0.40;;;;;;;;;;5039625;28;20094;-83
2023/05/24 03:49:47;;;;;;;1.17;0.40;;;;;;;;;;5042955;28;20532;-85
2023/05/24 03:52:13;;;;;;;1.85;0.93;;;;;;;;;;5047226;28;20041;-84
2023/05/24 03:54:39;;;;;;;2.10;0.43;;;;;;;;;;5047971;28;20545;-83
2023/05/24 03:57:06;;;;;;;0.82;0.47;;;;;;;;;;5044241;28;20021;-82
2023/05/24 03:59:32;;;;;;;0.90;0.55;;;;;;;;;;5043866;28;20376;-83
2023/05/24 04:01:58;;;;;;;0.30;0.30;;;;;;;;;;5045880;28;20029;-84
2023/05/24 04:04:23;;;;;;;2.15;0.90;;;;;;;;;;5031345;28;20493;-84
2023/05/24 04:06:49;;;;;;;1.02;0.43;;;;;;;;;;5033302;28;20030;-83
2023/05/24 04:09:15;;;;;;;1.85;0.55;;;;;;;;;;5046294;28;20029;-84
2023/05/24 04:11:41;;;;;;;2.75;0.40;;;;;;;;;;5042895;28;20029;-84
2023/05/24 04:14:08;;;;;;;2.33;0.30;;;;;;;;;;5046236;28;20025;-84
2023/05/24 04:16:34;;;;;;;0.85;0.45;;;;;;;;;;5037564;28;20025;-83
2023/05/24 04:19:02;;;;;;;1.13;0.45;;;;;;;;;;5047430;28;20094;-84
2023/05/24 04:21:28;;;;;;;0.95;0.60;;;;;;;;;;5040256;28;20714;-82
2023/05/24 04:24:00;;;;;;;0.70;0.45;;;;;;;;;;5035373;28;20029;-84
2023/05/24 04:26:26;;;;;;;0.80;0.47;;;;;;;;;;5046303;28;20029;-84
2023/05/24 04:28:52;;;;;;;4.50;0.70;;;;;;;;;;5048491;28;20021;-83
2023/05/24 04:31:19;;;;;;;0.88;0.47;;;;;;;;;;5043492;28;20041;-84
2023/05/24 04:33:46;;;;;;;1.17;0.60;;;;;;;;;;5033047;28;20033;-85
2023/05/24 04:36:12;;;;;;;0.50;0.40;;;;;;;;;;5034980;28;20151;-78
2023/05/24 04:38:39;;;;;;;1.02;0.77;;;;;;;;;;5043365;28;20276;-81
2023/05/24 04:41:06;;;;;;;0.38;0.30;;;;;;;;;;5031987;28;20046;-83
2023/05/24 04:43:35;;;;;;;0.63;0.47;;;;;;;;;;5034276;28;20029;-82
2023/05/24 04:46:02;;;;;;;1.23;0.63;;;;;;;;;;5063923;28;20036;-81
2023/05/24 04:48:28;;;;;;;0.65;0.60;;;;;;;;;;5053400;28;20048;-81
2023/05/24 04:50:55;;;;;;;0.73;0.40;;;;;;;;;;5037808;28;20660;-79
2023/05/24 04:53:21;;;;;;;1.23;0.55;;;;;;;;;;5041561;28;20284;-82
2023/05/24 04:55:47;;;;;;;1.33;0.65;;;;;;;;;;5032390;28;20028;-78
2023/05/24 04:58:13;;;;;;;0.70;0.50;;;;;;;;;;5046843;28;20021;-77
2023/05/24 05:00:39;;;;;;;0.63;0.40;;;;;;;;;;5048667;28;20113;-78
2023/05/24 05:03:07;;;;;;;1.30;0.50;;;;;;;;;;5045942;28;20036;-81
2023/05/24 05:05:33;;;;;;;0.98;0.60;;;;;;;;;;5043371;28;20025;-72
2023/05/24 05:07:59;;;;;;;0.73;0.60;;;;;;;;;;5046126;28;20033;-75
2023/05/24 05:10:25;;;;;;;1.25;0.75;;;;;;;;;;5037885;28;20044;-74
2023/05/24 05:12:52;;;;;;;0.65;0.65;;;;;;;;;;5056303;28;20024;-76
2023/05/24 05:15:18;;;;;;;0.77;0.52;;;;;;;;;;5063533;28;20025;-74
2023/05/24 05:17:44;;;;;;;0.40;0.40;;;;;;;;;;5045843;28;20098;-74
2023/05/24 05:20:10;;;;;;;0.50;0.40;;;;;;;;;;5043806;28;20120;-76
2023/05/24 05:22:36;;;;;;;1.02;0.70;;;;;;;;;;5045040;28;20029;-76
2023/05/24 05:25:32;;;;;;;0.60;0.30;;;;;;;;;;5042877;28;20026;-74
2023/05/24 05:27:58;;;;;;;2.75;1.17;;;;;;;;;;5049109;28;20028;-75
2023/05/24 05:30:24;;;;;;;5.70;0.88;;;;;;;;;;5051795;28;20033;-76
2023/05/24 05:32:50;;;;;;;2.53;0.70;;;;;;;;;;5049293;28;20036;-76
2023/05/24 05:35:16;;;;;;;1.30;0.57;;;;;;;;;;5051443;28;20383;-74
2023/05/24 05:37:42;;;;;;;0.52;0.32;;;;;;;;;;5044574;28;20115;-75
2023/05/24 05:40:08;;;;;;;1.27;0.85;;;;;;;;;;5051052;28;20021;-75
2023/05/24 05:42:38;;;;;;;1.35;0.50;;;;;;;;;;5064681;28;20040;-75
2023/05/24 05:45:04;;;;;;;1.98;0.70;;;;;;;;;;5035467;28;20052;-75
2023/05/24 05:47:30;;;;;;;1.13;0.70;;;;;;;;;;5045780;28;20029;-75
2023/05/24 05:49:56;;;;;;;2.05;0.95;;;;;;;;;;5036408;28;20017;-75
2023/05/24 05:52:22;;;;;;;1.23;0.52;;;;;;;;;;5051390;28;20419;-75
2023/05/24 05:54:48;;;;;;;1.20;0.70;;;;;;;;;;5050850;28;20048;-75
2023/05/24 05:57:15;;;;;;;2.13;0.60;;;;;;;;;;5051241;28;20357;-75
2023/05/24 05:59:41;;;;;;;3.03;0.40;;;;;;;;;;5045507;28;20104;-75
2023/05/24 06:02:07;;;;;;;0.98;0.68;;;;;;;;;;5044823;28;20025;-75
2023/05/24 06:04:39;;;;;;;0.73;0.70;;;;;;;;;;5040005;28;20076;-75
2023/05/24 06:07:05;;;;;;;5.93;0.50;;;;;;;;;;5043751;28;20044;-75
2023/05/24 06:09:31;;;;;;;0.40;0.32;;;;;;;;;;5049460;28;20032;-75
2023/05/24 06:11:57;;;;;;;0.88;0.80;;;;;;;;;;5048433;28;20032;-75
2023/05/24 06:14:23;;;;;;;2.72;0.73;;;;;;;;;;5049971;28;20091;-75
2023/05/24 06:16:51;;;;;;;3.30;0.60;;;;;;;;;;5050431;28;20100;-76
2023/05/24 06:19:17;;;;;;;1.17;0.60;;;;;;;;;;5047831;28;20029;-76
2023/05/24 06:21:46;;;;;;;2.92;0.80;;;;;;;;;;5050732;28;20027;-75
2023/05/24 06:24:13;;;;;;;1.00;0.80;;;;;;;;;;5043573;28;20025;-75
2023/05/24 06:26:39;;;;;;;1.52;0.55;;;;;;;;;;5045974;28;20025;-75
2023/05/24 06:29:05;;;;;;;2.08;1.02;;;;;;;;;;5048663;28;20043;-75
2023/05/24 06:31:31;;;;;;;0.60;0.60;;;;;;;;;;5050467;28;20416;-76
2023/05/24 06:33:57;;;;;;;2.00;0.75;;;;;;;;;;5050266;28;20083;-75
2023/05/24 06:36:23;;;;;;;1.58;1.20;;;;;;;;;;5049273;28;20017;-75
2023/05/24 06:38:49;;;;;;;1.35;0.70;;;;;;;;;;5040413;28;20078;-76
2023/05/24 06:41:15;;;;;;;1.05;0.70;;;;;;;;;;5051229;28;20017;-75
2023/05/24 06:43:41;;;;;;;1.77;0.50;;;;;;;;;;5038292;28;20021;-80
2023/05/24 06:46:07;;;;;;;1.60;0.70;;;;;;;;;;5045601;28;20115;-75
2023/05/24 06:48:33;;;;;;;1.20;0.60;;;;;;;;;;5041057;28;20048;-75
2023/05/24 06:50:59;;;;;;;1.00;0.90;;;;;;;;;;5046179;28;20037;-75
2023/05/24 06:53:26;;;;;;;4.95;0.98;;;;;;;;;;5042787;28;20028;-75
2023/05/24 06:55:52;;;;;;;0.52;0.52;;;;;;;;;;5043638;28;20220;-76
2023/05/24 06:58:18;;;;;;;1.25;0.50;;;;;;;;;;5039600;28;20383;-76
2023/05/24 07:00:44;;;;;;;1.58;0.75;;;;;;;;;;5047662;28;20120;-75
2023/05/24 07:03:12;;;;;;;2.00;0.80;;;;;;;;;;5039318;28;20060;-75
2023/05/24 07:05:38;;;;;;;1.17;0.90;;;;;;;;;;5039882;28;20067;-76
2023/05/24 07:08:04;;;;;;;2.85;0.70;;;;;;;;;;5047885;28;20422;-75
2023/05/24 07:10:30;;;;;;;2.40;0.40;;;;;;;;;;5047957;28;20101;-76
2023/05/24 07:12:56;;;;;;;3.03;1.50;;;;;;;;;;5042915;28;20030;-76
2023/05/24 07:15:22;;;;;;;0.43;0.43;;;;;;;;;;5041331;28;20033;-75
2023/05/24 07:17:48;;;;;;;2.58;0.80;;;;;;;;;;5046818;28;20348;-73
2023/05/24 07:20:14;;;;;;;0.60;0.52;;;;;;;;;;5044308;28;20025;-73
2023/05/24 07:22:40;;;;;;;1.52;0.95;;;;;;;;;;5046490;28;20029;-73
2023/05/24 07:25:07;;;;;;;1.58;0.77;;;;;;;;;;5038064;28;20115;-75
2023/05/24 07:27:33;;;;;;;1.52;1.13;;;;;;;;;;5045413;28;20120;-75
2023/05/24 07:29:59;;;;;;;1.23;0.77;;;;;;;;;;5047760;28;20021;-74
2023/05/24 07:32:25;;;;;;;1.17;0.68;;;;;;;;;;5040611;28;20060;-75
2023/05/24 07:34:51;;;;;;;0.70;0.70;;;;;;;;;;5039307;28;20056;-75
2023/05/24 07:37:17;;;;;;;1.65;0.70;;;;;;;;;;5045906;28;20373;-75
2023/05/24 07:39:43;;;;;;;1.00;0.57;;;;;;;;;;5065993;28;20017;-76
2023/05/24 07:42:09;;;;;;;1.17;0.70;;;;;;;;;;5065807;28;20074;-76
2023/05/24 07:44:39;;;;;;;1.20;0.60;;;;;;;;;;5069133;28;20410;-75
2023/05/24 07:47:05;;;;;;;1.45;0.90;;;;;;;;;;5043522;28;20036;-75
2023/05/24 07:49:31;;;;;;;0.57;0.57;;;;;;;;;;5044322;28;20027;-76
2023/05/24 07:51:58;;;;;;;1.33;0.95;;;;;;;;;;5045885;28;20025;-79
2023/05/24 07:54:25;;;;;;;2.10;0.70;;;;;;;;;;5031531;28;20037;-76
2023/05/24 07:56:51;;;;;;;1.05;0.63;;;;;;;;;;5040874;28;20324;-76
2023/05/24 07:59:17;;;;;;;0.68;0.40;;;;;;;;;;5038470;28;20075;-76
2023/05/24 08:01:43;;;;;;;1.25;0.75;;;;;;;;;;5035182;28;20033;-76
2023/05/24 08:04:10;;;;;;;1.70;0.73;;;;;;;;;;5044429;28;20128;-76
2023/05/24 08:06:36;;;;;;;0.55;0.55;;;;;;;;;;5036823;28;20496;-74
2023/05/24 08:09:03;;;;;;;2.97;0.80;;;;;;;;;;5044028;28;20029;-76
2023/05/24 08:11:29;;;;;;;0.50;0.47;;;;;;;;;;5038948;28;20041;-75
2023/05/24 08:13:55;;;;;;;1.92;0.70;;;;;;;;;;5033058;28;20017;-75
2023/05/24 08:16:21;;;;;;;2.38;0.73;;;;;;;;;;5039583;28;20480;-78
2023/05/24 08:18:47;;;;;;;0.65;0.65;;;;;;;;;;5041457;28;20079;-77
2023/05/24 08:21:13;;;;;;;1.33;0.88;;;;;;;;;;5039501;28;20017;-78
2023/05/24 08:23:40;;;;;;;1.77;0.60;;;;;;;;;;5047140;28;20033;-79
2023/05/24 08:26:06;;;;;;;1.48;0.70;;;;;;;;;;5042225;28;20037;-79
2023/05/24 08:28:32;;;;;;;1.02;0.65;;;;;;;;;;5048404;28;20055;-78
2023/05/24 08:30:58;;;;;;;2.58;0.90;;;;;;;;;;5048068;28;20035;-78
2023/05/24 08:33:24;;;;;;;0.90;0.47;;;;;;;;;;5048252;28;20047;-78
2023/05/24 08:35:50;;;;;;;1.65;0.77;;;;;;;;;;5036795;28;20087;-79
2023/05/24 08:38:16;;;;;;;1.23;0.65;;;;;;;;;;5045053;28;20029;-79
2023/05/24 08:40:42;;;;;;;1.67;1.02;;;;;;;;;;5048072;28;20017;-79
2023/05/24 08:43:10;;;;;;;0.80;0.68;;;;;;;;;;5049774;28;20388;-78
2023/05/24 08:45:37;;;;;;;3.85;0.70;;;;;;;;;;5047918;28;20028;-78
2023/05/24 08:48:05;;;;;;;1.35;0.65;;;;;;;;;;5048022;28;20021;-79
2023/05/24 08:50:31;;;;;;;1.63;0.85;;;;;;;;;;5048172;28;20029;-78
2023/05/24 08:52:58;;;;;;;1.23;0.80;;;;;;;;;;5047618;28;20031;-78
2023/05/24 08:55:25;;;;;;;4.47;0.75;;;;;;;;;;5041230;28;20020;-79
2023/05/24 08:57:51;;;;;;;1.35;0.80;;;;;;;;;;5048262;28;20017;-79
2023/05/24 09:00:18;;;;;;;2.00;0.65;;;;;;;;;;5047855;28;20013;-79
2023/05/24 09:02:45;;;;;;;1.00;0.60;;;;;;;;;;5048965;28;20025;-80
2023/05/24 09:05:13;;;;;;;1.67;0.85;;;;;;;;;;5038319;28;20650;-79
2023/05/24 09:07:39;;;;;;;0.88;0.70;;;;;;;;;;5038518;28;20040;-79
2023/05/24 09:10:06;;;;;;;2.58;0.63;;;;;;;;;;5041481;28;20087;-79
2023/05/24 09:12:33;;;;;;;2.58;0.65;;;;;;;;;;5052255;28;20017;-79
2023/05/24 09:14:59;;;;;;;1.77;1.00;;;;;;;;;;5051343;28;20032;-79
2023/05/24 09:17:25;;;;;;;0.75;0.52;;;;;;;;;;5051959;28;20103;-79
2023/05/24 09:19:52;;;;;;;1.13;0.50;;;;;;;;;;5049349;28;20089;-77
2023/05/24 09:22:19;;;;;;;0.90;0.70;;;;;;;;;;5035686;28;20182;-78
2023/05/24 09:24:47;;;;;;;1.58;0.82;;;;;;;;;;5050433;28;20082;-78
2023/05/24 09:27:17;;;;;;;0.52;0.52;;;;;;;;;;5052206;28;20029;-78
2023/05/24 09:29:52;;;;;;;2.72;1.27;;;;;;;;;;5051497;28;20025;-78
2023/05/24 09:32:18;;;;;;;1.30;0.60;;;;;;;;;;5051835;28;20025;-78
2023/05/24 09:34:48;;;;;;;1.98;1.30;;;;;;;;;;5045521;28;20047;-78
2023/05/24 09:37:16;;;;;;;0.85;0.45;;;;;;;;;;5041212;28;20076;-78
2023/05/24 09:39:43;;;;;;;3.83;0.60;;;;;;;;;;5049482;28;20021;-79
2023/05/24 09:42:14;;;;;;;0.80;0.60;;;;;;;;;;5050028;28;20029;-78
2023/05/24 09:44:41;;;;;;;1.00;0.75;;;;;;;;;;5048172;28;20031;-78
2023/05/24 09:47:08;;;;;;;0.40;0.35;;;;;;;;;;5051342;28;20021;-79
2023/05/24 09:49:36;;;;;;;1.85;0.70;;;;;;;;;;5051362;28;20404;-78
2023/05/24 09:52:02;;;;;;;1.50;0.60;;;;;;;;;;5047504;28;20033;-78
2023/05/24 09:54:28;;;;;;;0.73;0.60;;;;;;;;;;5051273;28;20040;-78
2023/05/24 09:56:54;;;;;;;3.03;0.90;;;;;;;;;;5051280;28;20029;-79
2023/05/24 09:59:20;;;;;;;2.83;1.02;;;;;;;;;;5050788;28;20021;-79
2023/05/24 10:01:52;;;;;;;0.57;0.40;;;;;;;;;;5041681;28;20025;-79
2023/05/24 10:04:18;;;;;;;0.85;0.60;;;;;;;;;;5040382;28;20584;-79
2023/05/24 10:06:46;;;;;;;0.50;0.50;;;;;;;;;;5050996;28;20086;-79
2023/05/24 10:09:13;;;;;;;1.15;0.63;;;;;;;;;;5050631;28;20438;-79
2023/05/24 10:11:41;;;;;;;0.85;0.60;;;;;;;;;;5050706;28;20045;-80
2023/05/24 10:14:08;;;;;;;2.00;1.00;;;;;;;;;;5043344;28;20032;-80
2023/05/24 10:16:37;;;;;;;1.67;0.65;;;;;;;;;;5041163;28;20082;-80
2023/05/24 10:19:03;;;;;;;1.58;0.88;;;;;;;;;;5049180;28;20563;-80
2023/05/24 10:21:31;;;;;;;1.70;0.95;;;;;;;;;;5050953;28;20025;-79
2023/05/24 10:23:58;;;;;;;1.27;0.75;;;;;;;;;;5050444;28;20124;-78
2023/05/24 10:26:29;;;;;;;0.50;0.50;;;;;;;;;;5048071;28;20071;-79
2023/05/24 10:28:57;;;;;;;1.48;0.70;;;;;;;;;;5038208;28;20328;-78
2023/05/24 10:31:49;;;;;;;0.52;0.52;;;;;;;;;;5051075;28;20029;-78
2023/05/24 10:34:15;;;;;;;4.53;1.10;;;;;;;;;;5048664;28;20514;-78
2023/05/24 10:36:42;;;;;;;1.90;0.80;;;;;;;;;;5048795;28;20103;-79
2023/05/24 10:39:12;;;;;;;1.25;0.73;;;;;;;;;;5041674;28;20025;-78
2023/05/24 10:41:39;;;;;;;0.70;0.70;;;;;;;;;;5052251;28;20023;-79
2023/05/24 10:44:10;;;;;;;3.50;1.23;;;;;;;;;;5071238;28;20112;-79
2023/05/24 10:46:37;;;;;;;1.02;0.50;;;;;;;;;;5070847;28;20036;-78
2023/05/24 10:49:05;;;;;;;2.22;1.02;;;;;;;;;;5071004;28;20038;-77
2023/05/24 10:51:31;;;;;;;0.43;0.40;;;;;;;;;;5060018;28;20021;-78
2023/05/24 10:53:57;;;;;;;0.28;0.28;;;;;;;;;;5044261;28;20043;-78
2023/05/24 10:56:27;;;;;;;1.98;1.20;;;;;;;;;;5051147;28;20372;-78
2023/05/24 10:58:56;;;;;;;0.75;0.70;;;;;;;;;;5046495;28;20017;-78
2023/05/24 11:01:41;;;;;;;2.42;0.60;;;;;;;;;;5051083;28;20108;-78
2023/05/24 11:04:11;;;;;;;0.70;0.47;;;;;;;;;;5050785;28;20041;-78
2023/05/24 11:06:44;;;;;;;0.73;0.60;;;;;;;;;;5051450;28;20462;-78
2023/05/24 11:09:10;;;;;;;0.63;0.60;;;;;;;;;;5047859;28;20032;-78
2023/05/24 11:11:37;;;;;;;2.17;0.77;;;;;;;;;;5041943;28;20035;-78
2023/05/24 11:14:03;;;;;;;2.28;1.00;;;;;;;;;;5050487;28;20033;-79
2023/05/24 11:16:36;;;;;;;0.90;0.52;;;;;;;;;;5050109;28;20432;-79
2023/05/24 11:19:12;;;;;;;1.30;1.02;;;;;;;;;;5048653;28;20025;-78
2023/05/24 11:21:40;;;;;;;0.77;0.77;;;;;;;;;;5051487;28;20491;-78
2023/05/24 11:24:06;;;;;;;1.60;0.95;;;;;;;;;;5050781;28;20037;-79
2023/05/24 11:26:32;;;;;;;2.05;0.82;;;;;;;;;;5050229;28;20028;-78
2023/05/24 11:29:00;;;;;;;1.80;0.82;;;;;;;;;;5048503;28;20053;-78
2023/05/24 11:31:32;;;;;;;0.90;0.68;;;;;;;;;;5050712;28;20025;-78
2023/05/24 11:33:59;;;;;;;2.60;0.90;;;;;;;;;;5050117;28;20388;-78
2023/05/24 11:36:25;;;;;;;1.10;0.65;;;;;;;;;;5050006;28;20033;-78
2023/05/24 11:38:53;;;;;;;2.63;1.13;;;;;;;;;;5047126;28;20441;-79
2023/05/24 11:41:19;;;;;;;0.63;0.60;;;;;;;;;;5048860;28;20024;-78
2023/05/24 11:43:46;;;;;;;1.30;0.77;;;;;;;;;;5070075;28;20480;-80
2023/05/24 11:46:12;;;;;;;0.77;0.70;;;;;;;;;;5070268;28;20690;-79
2023/05/24 11:48:38;;;;;;;0.63;0.63;;;;;;;;;;5070247;28;20052;-79
2023/05/24 11:51:04;;;;;;;1.83;0.60;;;;;;;;;;5039169;28;20120;-78
2023/05/24 11:53:31;;;;;;;1.75;1.23;;;;;;;;;;5048396;28;20075;-78
2023/05/24 11:55:57;;;;;;;1.50;1.00;;;;;;;;;;5047648;28;20451;-79
2023/05/24 11:58:25;;;;;;;1.50;0.70;;;;;;;;;;5050602;28;20028;-78
2023/05/24 12:00:51;;;;;;;0.60;0.47;;;;;;;;;;5050413;28;20013;-78
2023/05/24 12:03:17;;;;;;;1.65;0.75;;;;;;;;;;5050002;28;20053;-78
2023/05/24 12:05:44;;;;;;;1.33;0.60;;;;;;;;;;5042446;28;20060;-78
2023/05/24 12:08:11;;;;;;;0.70;0.50;;;;;;;;;;5050503;28;20476;-78
2023/05/24 12:10:38;;;;;;;1.05;0.88;;;;;;;;;;5050402;28;20116;-79
2023/05/24 12:13:06;;;;;;;0.60;0.60;;;;;;;;;;5048040;28;20041;-78
2023/05/24 12:15:32;;;;;;;2.30;0.90;;;;;;;;;;5050506;28;20033;-79
2023/05/24 12:17:58;;;;;;;1.67;0.70;;;;;;;;;;5048079;28;20025;-79
2023/05/24 12:20:26;;;;;;;2.17;0.65;;;;;;;;;;5048140;28;20021;-79
2023/05/24 12:22:53;;;;;;;1.90;0.70;;;;;;;;;;5047594;28;20024;-79
2023/05/24 12:25:20;;;;;;;2.22;0.70;;;;;;;;;;5046781;28;20039;-78
2023/05/24 12:27:47;;;;;;;0.50;0.50;;;;;;;;;;5047995;28;20017;-78
2023/05/24 12:30:17;;;;;;;0.68;0.63;;;;;;;;;;5048266;28;20021;-78
2023/05/24 12:32:43;;;;;;;0.75;0.60;;;;;;;;;;5048119;28;20048;-78
2023/05/24 12:35:11;;;;;;;1.48;1.00;;;;;;;;;;5027492;28;20038;-73
2023/05/24 12:37:38;;;;;;;0.98;0.57;;;;;;;;;;5038776;28;20090;-75
2023/05/24 12:40:13;;;;;;;0.57;0.52;;;;;;;;;;5042163;28;20035;-76
2023/05/24 12:42:39;;;;;;;1.63;0.70;;;;;;;;;;5054021;28;20025;-75
2023/05/24 12:45:09;;;;;;;1.75;0.60;;;;;;;;;;5031931;28;20026;-75
2023/05/24 12:47:35;;;;;;;2.30;0.90;;;;;;;;;;5049509;28;20369;-75
2023/05/24 12:50:01;;;;;;;1.05;0.82;;;;;;;;;;5042755;28;20597;-75
2023/05/24 12:52:27;;;;;;;1.90;1.10;;;;;;;;;;5038576;28;20021;-74
2023/05/24 12:54:53;;;;;;;1.65;0.95;;;;;;;;;;5030040;28;20084;-74
2023/05/24 12:57:19;;;;;;;1.42;1.00;;;;;;;;;;5039726;28;20025;-74
2023/05/24 12:59:46;;;;;;;1.02;0.90;;;;;;;;;;5038041;28;20467;-79
2023/05/24 13:02:14;;;;;;;1.23;0.80;;;;;;;;;;5042407;28;20171;-79
2023/05/24 13:04:44;;;;;;;1.40;0.82;;;;;;;;;;5038095;28;20056;-79
2023/05/24 13:07:10;;;;;;;1.83;1.35;;;;;;;;;;5047155;28;20148;-75
2023/05/24 13:09:35;;;;;;;4.20;1.65;;;;;;;;;;5043663;28;20483;-74
2023/05/24 13:12:01;;;;;;;1.42;0.77;;;;;;;;;;5042563;28;20952;-72
2023/05/24 13:14:27;;;;;;;1.25;1.15;;;;;;;;;;5040182;28;20416;-75
2023/05/24 13:16:53;;;;;;;1.25;0.55;;;;;;;;;;5042673;28;20021;-75
2023/05/24 13:19:19;;;;;;;1.00;0.77;;;;;;;;;;5044075;28;20029;-75
2023/05/24 13:21:45;;;;;;;5.35;0.95;;;;;;;;;;5031224;28;20028;-75
2023/05/24 13:24:13;;;;;;;0.77;0.70;;;;;;;;;;5036476;28;20032;-76
2023/05/24 13:26:39;;;;;;;0.95;0.75;;;;;;;;;;5044299;28;20120;-76
2023/05/24 13:29:05;;;;;;;1.95;0.90;;;;;;;;;;5037571;28;20555;-75
2023/05/24 13:31:32;;;;;;;1.60;0.95;;;;;;;;;;5043955;28;20029;-75
2023/05/24 13:33:58;;;;;;;1.35;0.80;;;;;;;;;;5042343;28;20174;-75
2023/05/24 13:36:24;;;;;;;1.45;0.93;;;;;;;;;;5043690;28;20079;-75
2023/05/24 13:38:49;;;;;;;4.57;0.80;;;;;;;;;;5033737;28;20032;-73
2023/05/24 13:41:15;;;;;;;2.30;0.73;;;;;;;;;;5044886;28;20025;-77
2023/05/24 13:43:41;;;;;;;1.67;0.77;;;;;;;;;;5052168;28;20032;-72
2023/05/24 13:46:08;;;;;;;2.08;0.57;;;;;;;;;;5047529;28;20033;-71
2023/05/24 13:48:34;;;;;;;1.17;0.75;;;;;;;;;;5047091;28;20033;-71
2023/05/24 13:51:00;;;;;;;3.25;0.77;;;;;;;;;;5052225;28;20115;-72
2023/05/24 13:53:26;;;;;;;1.45;0.90;;;;;;;;;;5048796;28;20021;-72
2023/05/24 13:55:53;;;;;;;1.15;0.77;;;;;;;;;;5035449;28;20027;-72
2023/05/24 13:58:19;;;;;;;2.67;0.90;;;;;;;;;;5042884;28;20035;-72
2023/05/24 14:00:47;;;;;;;1.70;1.27;;;;;;;;;;5048701;28;20647;-73
2023/05/24 14:03:14;;;;;;;2.95;0.90;;;;;;;;;;5045513;28;20029;-73
2023/05/24 14:05:40;;;;;;;4.72;1.15;;;;;;;;;;5041672;28;20025;-73
2023/05/24 14:08:06;;;;;;;2.17;1.05;;;;;;;;;;5047096;28;20696;-72
2023/05/24 14:10:35;;;;;;;3.60;1.00;;;;;;;;;;5041228;28;20395;-73
2023/05/24 14:13:05;;;;;;;2.70;0.77;;;;;;;;;;5042163;28;20074;-73
2023/05/24 14:15:31;;;;;;;2.42;1.15;;;;;;;;;;5040669;28;20071;-73
2023/05/24 14:17:59;;;;;;;1.17;0.88;;;;;;;;;;5042546;28;20372;-73
2023/05/24 14:20:25;;;;;;;2.70;1.02;;;;;;;;;;5045195;28;20039;-73
2023/05/24 14:22:51;;;;;;;1.52;1.05;;;;;;;;;;5039375;28;20029;-73
2023/05/24 14:25:17;;;;;;;3.10;1.50;;;;;;;;;;5039696;28;20541;-73
2023/05/24 14:27:44;;;;;;;4.50;1.33;;;;;;;;;;5046869;28;20025;-74
2023/05/24 14:30:10;;;;;;;1.30;0.85;;;;;;;;;;5048214;28;20028;-73
2023/05/24 14:32:36;;;;;;;1.40;0.80;;;;;;;;;;5035047;28;20037;-75
2023/05/24 14:35:03;;;;;;;3.63;0.75;;;;;;;;;;5036182;28;20037;-75
2023/05/24 14:37:28;;;;;;;2.42;1.08;;;;;;;;;;5047534;28;20021;-75
2023/05/24 14:39:57;;;;;;;2.80;1.08;;;;;;;;;;5040637;28;20025;-73
2023/05/24 14:42:23;;;;;;;1.23;0.82;;;;;;;;;;5038678;28;20056;-74